sensor_id;sensor_type;location;lat;lon;timestamp;pressure;altitude;pressure_sealevel;temperature;humidity
52855;BME280;38719;51.418;7.286;2022-08-01T00:00:48;99835.06;;;22.01;74.01
52855;BME280;38719;51.418;7.286;2022-08-01T00:03:15;99829.06;;;22.07;74.00
52855;BME280;38719;51.418;7.286;2022-08-01T00:05:43;99836.19;;;22.08;74.07
52855;BME280;38719;51.418;7.286;2022-08-01T00:08:11;99835.19;;;22.09;73.93
52855;BME280;38719;51.418;7.286;2022-08-01T00:10:39;99828.47;;;22.13;73.53
52855;BME280;38719;51.418;7.286;2022-08-01T00:13:06;99836.88;;;22.10;73.54
52855;BME280;38719;51.418;7.286;2022-08-01T00:15:35;99834.06;;;22.02;73.73
52855;BME280;38719;51.418;7.286;2022-08-01T00:18:05;99830.22;;;22.04;73.69
52855;BME280;38719;51.418;7.286;2022-08-01T00:20:32;99835.47;;;22.06;74.10
52855;BME280;38719;51.418;7.286;2022-08-01T00:23:02;99838.50;;;22.03;74.26
52855;BME280;38719;51.418;7.286;2022-08-01T00:25:30;99832.22;;;21.93;74.47
52855;BME280;38719;51.418;7.286;2022-08-01T00:27:59;99822.53;;;21.90;74.55
52855;BME280;38719;51.418;7.286;2022-08-01T00:30:29;99832.22;;;21.93;74.61
52855;BME280;38719;51.418;7.286;2022-08-01T00:32:57;99825.81;;;21.94;74.89
52855;BME280;38719;51.418;7.286;2022-08-01T00:35:26;99833.94;;;21.94;74.43
52855;BME280;38719;51.418;7.286;2022-08-01T00:37:54;99835.91;;;21.92;74.61
52855;BME280;38719;51.418;7.286;2022-08-01T00:40:21;99831.53;;;21.81;74.89
52855;BME280;38719;51.418;7.286;2022-08-01T00:42:49;99830.56;;;21.82;74.88
52855;BME280;38719;51.418;7.286;2022-08-01T00:45:17;99826.38;;;21.97;74.80
52855;BME280;38719;51.418;7.286;2022-08-01T00:47:44;99827.94;;;22.00;74.11
52855;BME280;38719;51.418;7.286;2022-08-01T00:50:12;99829.22;;;21.96;74.94
52855;BME280;38719;51.418;7.286;2022-08-01T00:52:41;99836.50;;;21.95;74.30
52855;BME280;38719;51.418;7.286;2022-08-01T00:55:18;99831.06;;;21.95;74.58
52855;BME280;38719;51.418;7.286;2022-08-01T00:57:46;99834.94;;;21.93;74.38
52855;BME280;38719;51.418;7.286;2022-08-01T01:00:31;99830.09;;;21.86;75.04
52855;BME280;38719;51.418;7.286;2022-08-01T01:03:19;99831.53;;;21.90;74.91
52855;BME280;38719;51.418;7.286;2022-08-01T01:06:01;99836.38;;;21.87;74.61
52855;BME280;38719;51.418;7.286;2022-08-01T01:08:37;99829.09;;;21.87;74.46
52855;BME280;38719;51.418;7.286;2022-08-01T01:11:12;99823.25;;;21.92;74.57
52855;BME280;38719;51.418;7.286;2022-08-01T01:13:44;99826.78;;;21.93;74.97
52855;BME280;38719;51.418;7.286;2022-08-01T01:16:19;99833.38;;;21.80;74.76
52855;BME280;38719;51.418;7.286;2022-08-01T01:18:49;99835.97;;;21.82;75.24
52855;BME280;38719;51.418;7.286;2022-08-01T01:21:35;99835.50;;;21.86;74.94
52855;BME280;38719;51.418;7.286;2022-08-01T01:24:16;99830.81;;;21.79;74.67
52855;BME280;38719;51.418;7.286;2022-08-01T01:26:52;99832.53;;;21.89;75.01
52855;BME280;38719;51.418;7.286;2022-08-01T01:29:25;99830.97;;;21.87;74.80
52855;BME280;38719;51.418;7.286;2022-08-01T01:32:05;99824.50;;;21.98;74.42
52855;BME280;38719;51.418;7.286;2022-08-01T01:34:36;99836.06;;;21.90;74.95
52855;BME280;38719;51.418;7.286;2022-08-01T01:37:09;99835.09;;;21.81;74.65
52855;BME280;38719;51.418;7.286;2022-08-01T01:39:40;99831.25;;;21.84;74.79
52855;BME280;38719;51.418;7.286;2022-08-01T01:42:20;99833.94;;;21.94;74.67
52855;BME280;38719;51.418;7.286;2022-08-01T01:44:50;99837.94;;;21.89;74.22
52855;BME280;38719;51.418;7.286;2022-08-01T01:47:19;99834.84;;;21.74;74.45
52855;BME280;38719;51.418;7.286;2022-08-01T01:49:48;99829.69;;;21.81;74.59
52855;BME280;38719;51.418;7.286;2022-08-01T01:52:18;99846.34;;;21.96;74.32
52855;BME280;38719;51.418;7.286;2022-08-01T01:54:48;99846.06;;;21.99;74.38
52855;BME280;38719;51.418;7.286;2022-08-01T01:57:18;99837.06;;;21.99;74.10
52855;BME280;38719;51.418;7.286;2022-08-01T01:59:46;99836.47;;;22.05;73.99
52855;BME280;38719;51.418;7.286;2022-08-01T02:02:17;99830.47;;;22.01;73.78
52855;BME280;38719;51.418;7.286;2022-08-01T02:04:46;99838.50;;;22.03;73.71
52855;BME280;38719;51.418;7.286;2022-08-01T02:07:19;99837.06;;;21.99;73.67
52855;BME280;38719;51.418;7.286;2022-08-01T02:09:48;99841.63;;;22.08;73.75
52855;BME280;38719;51.418;7.286;2022-08-01T02:12:18;99842.19;;;22.12;73.52
52855;BME280;38719;51.418;7.286;2022-08-01T02:14:48;99838.78;;;22.00;73.73
52855;BME280;38719;51.418;7.286;2022-08-01T02:17:20;99829.06;;;21.97;73.73
52855;BME280;38719;51.418;7.286;2022-08-01T02:19:49;99830.22;;;21.95;74.16
52855;BME280;38719;51.418;7.286;2022-08-01T02:22:21;99836.22;;;21.88;74.15
52855;BME280;38719;51.418;7.286;2022-08-01T02:24:59;99826.81;;;21.83;73.91
52855;BME280;38719;51.418;7.286;2022-08-01T02:27:34;99828.69;;;21.72;74.58
52855;BME280;38719;51.418;7.286;2022-08-01T02:30:04;99829.09;;;21.87;74.12
52855;BME280;38719;51.418;7.286;2022-08-01T02:32:36;99835.38;;;21.88;74.00
52855;BME280;38719;51.418;7.286;2022-08-01T02:35:07;99836.22;;;21.88;73.77
52855;BME280;38719;51.418;7.286;2022-08-01T02:37:38;99834.09;;;21.92;73.65
52855;BME280;38719;51.418;7.286;2022-08-01T02:40:12;99827.50;;;21.95;73.77
52855;BME280;38719;51.418;7.286;2022-08-01T02:42:43;99830.81;;;21.88;73.86
52855;BME280;38719;51.418;7.286;2022-08-01T02:45:13;99829.09;;;21.78;74.45
52855;BME280;38719;51.418;7.286;2022-08-01T02:47:43;99831.66;;;21.79;74.21
52855;BME280;38719;51.418;7.286;2022-08-01T02:50:12;99829.41;;;21.84;74.27
52855;BME280;38719;51.418;7.286;2022-08-01T02:52:41;99830.66;;;21.80;74.13
52855;BME280;38719;51.418;7.286;2022-08-01T02:55:12;99827.84;;;21.72;74.62
52855;BME280;38719;51.418;7.286;2022-08-01T02:57:41;99825.13;;;21.72;74.60
52855;BME280;38719;51.418;7.286;2022-08-01T03:00:23;99821.84;;;21.78;74.37
52855;BME280;38719;51.418;7.286;2022-08-01T03:02:54;99819.81;;;21.90;74.22
52855;BME280;38719;51.418;7.286;2022-08-01T03:05:24;99819.72;;;21.82;73.84
52855;BME280;38719;51.418;7.286;2022-08-01T03:07:55;99816.53;;;21.86;73.73
52855;BME280;38719;51.418;7.286;2022-08-01T03:10:29;99812.84;;;21.87;74.08
52855;BME280;38719;51.418;7.286;2022-08-01T03:12:59;99818.25;;;21.87;74.30
52855;BME280;38719;51.418;7.286;2022-08-01T03:15:29;99824.41;;;21.89;73.97
52855;BME280;38719;51.418;7.286;2022-08-01T03:18:01;99823.81;;;21.86;74.02
52855;BME280;38719;51.418;7.286;2022-08-01T03:20:30;99826.38;;;21.87;73.81
52855;BME280;38719;51.418;7.286;2022-08-01T03:23:00;99827.09;;;21.89;74.28
52855;BME280;38719;51.418;7.286;2022-08-01T03:25:30;99838.50;;;21.93;73.66
52855;BME280;38719;51.418;7.286;2022-08-01T03:28:01;99835.09;;;21.91;73.87
52855;BME280;38719;51.418;7.286;2022-08-01T03:30:31;99836.22;;;21.88;73.87
52855;BME280;38719;51.418;7.286;2022-08-01T03:33:01;99841.09;;;21.85;74.11
52855;BME280;38719;51.418;7.286;2022-08-01T03:35:32;99836.41;;;21.77;74.48
52855;BME280;38719;51.418;7.286;2022-08-01T03:38:04;99843.94;;;21.83;74.11
52855;BME280;38719;51.418;7.286;2022-08-01T03:40:45;99846.50;;;21.85;74.30
52855;BME280;38719;51.418;7.286;2022-08-01T03:43:18;99853.34;;;21.79;74.68
52855;BME280;38719;51.418;7.286;2022-08-01T03:45:50;99852.81;;;21.76;74.54
52855;BME280;38719;51.418;7.286;2022-08-01T03:48:26;99850.38;;;21.72;74.66
52855;BME280;38719;51.418;7.286;2022-08-01T03:50:55;99854.06;;;21.71;74.18
52855;BME280;38719;51.418;7.286;2022-08-01T03:53:27;99849.53;;;21.72;74.60
52855;BME280;38719;51.418;7.286;2022-08-01T03:55:57;99852.66;;;21.67;74.83
52855;BME280;38719;51.418;7.286;2022-08-01T03:58:26;99842.09;;;21.64;74.55
52855;BME280;38719;51.418;7.286;2022-08-01T04:00:55;99848.09;;;21.68;74.71
52855;BME280;38719;51.418;7.286;2022-08-01T04:03:25;99841.41;;;21.72;74.63
52855;BME280;38719;51.418;7.286;2022-08-01T04:05:53;99850.22;;;21.74;74.35
52855;BME280;38719;51.418;7.286;2022-08-01T04:08:20;99851.34;;;21.81;74.21
52855;BME280;38719;51.418;7.286;2022-08-01T04:10:55;99849.66;;;21.70;74.01
52855;BME280;38719;51.418;7.286;2022-08-01T04:13:24;99854.50;;;21.77;74.05
52855;BME280;38719;51.418;7.286;2022-08-01T04:16:03;99851.22;;;21.73;74.45
52855;BME280;38719;51.418;7.286;2022-08-01T04:18:32;99855.63;;;21.74;74.41
52855;BME280;38719;51.418;7.286;2022-08-01T04:20:59;99853.97;;;21.63;74.78
52855;BME280;38719;51.418;7.286;2022-08-01T04:23:28;99855.94;;;21.71;74.32
52855;BME280;38719;51.418;7.286;2022-08-01T04:26:02;99852.50;;;21.69;74.63
52855;BME280;38719;51.418;7.286;2022-08-01T04:28:34;99859.06;;;21.76;74.12
52855;BME280;38719;51.418;7.286;2022-08-01T04:31:03;99859.06;;;21.76;73.91
52855;BME280;38719;51.418;7.286;2022-08-01T04:33:35;99857.78;;;21.70;73.98
52855;BME280;38719;51.418;7.286;2022-08-01T04:36:06;99861.63;;;21.68;74.21
52855;BME280;38719;51.418;7.286;2022-08-01T04:38:38;99861.94;;;21.65;74.50
52855;BME280;38719;51.418;7.286;2022-08-01T04:41:10;99872.78;;;21.74;74.14
52855;BME280;38719;51.418;7.286;2022-08-01T04:43:39;99866.78;;;21.71;74.10
52855;BME280;38719;51.418;7.286;2022-08-01T04:46:09;99868.50;;;21.72;73.82
52855;BME280;38719;51.418;7.286;2022-08-01T04:48:40;99880.03;;;21.74;73.71
52855;BME280;38719;51.418;7.286;2022-08-01T04:51:12;99883.16;;;21.89;73.24
52855;BME280;38719;51.418;7.286;2022-08-01T04:53:41;99884.75;;;21.82;73.43
52855;BME280;38719;51.418;7.286;2022-08-01T04:56:09;99875.59;;;21.83;73.30
52855;BME280;38719;51.418;7.286;2022-08-01T04:58:39;99882.88;;;21.82;73.21
52855;BME280;38719;51.418;7.286;2022-08-01T05:01:07;99882.88;;;21.82;73.48
52855;BME280;38719;51.418;7.286;2022-08-01T05:03:35;99894.16;;;21.87;73.87
52855;BME280;38719;51.418;7.286;2022-08-01T05:06:06;99889.31;;;21.81;74.13
52855;BME280;38719;51.418;7.286;2022-08-01T05:08:33;99889.59;;;21.88;73.63
52855;BME280;38719;51.418;7.286;2022-08-01T05:11:02;99889.28;;;21.91;73.97
52855;BME280;38719;51.418;7.286;2022-08-01T05:13:30;99887.44;;;21.92;73.86
52855;BME280;38719;51.418;7.286;2022-08-01T05:15:57;99888.44;;;22.00;73.86
52855;BME280;38719;51.418;7.286;2022-08-01T05:18:25;99891.00;;;22.02;73.46
52855;BME280;38719;51.418;7.286;2022-08-01T05:20:54;99891.56;;;22.05;74.01
52855;BME280;38719;51.418;7.286;2022-08-01T05:23:23;99892.72;;;22.03;73.39
52855;BME280;38719;51.418;7.286;2022-08-01T05:26:09;99893.28;;;21.97;73.87
52855;BME280;38719;51.418;7.286;2022-08-01T05:28:40;99903.84;;;22.00;74.11
52855;BME280;38719;51.418;7.286;2022-08-01T05:31:07;99909.25;;;22.00;74.17
52855;BME280;38719;51.418;7.286;2022-08-01T05:33:35;99907.84;;;22.05;73.44
52855;BME280;38719;51.418;7.286;2022-08-01T05:36:03;99911.81;;;22.11;73.42
52855;BME280;38719;51.418;7.286;2022-08-01T05:38:32;99907.53;;;22.09;73.87
52855;BME280;38719;51.418;7.286;2022-08-01T05:41:00;99906.53;;;22.10;73.70
52855;BME280;38719;51.418;7.286;2022-08-01T05:43:28;99908.09;;;22.12;73.67
52855;BME280;38719;51.418;7.286;2022-08-01T05:45:56;99918.53;;;22.07;73.87
52855;BME280;38719;51.418;7.286;2022-08-01T05:48:24;99913.84;;;21.99;73.69
52855;BME280;38719;51.418;7.286;2022-08-01T05:50:53;99918.53;;;22.07;73.99
52855;BME280;38719;51.418;7.286;2022-08-01T05:53:24;99917.53;;;22.08;72.84
52855;BME280;38719;51.418;7.286;2022-08-01T05:55:53;99917.81;;;22.15;73.59
52855;BME280;38719;51.418;7.286;2022-08-01T05:58:21;99919.09;;;22.11;73.31
52855;BME280;38719;51.418;7.286;2022-08-01T06:00:49;99920.50;;;22.15;73.55
52855;BME280;38719;51.418;7.286;2022-08-01T06:03:16;99915.06;;;22.25;72.77
52855;BME280;38719;51.418;7.286;2022-08-01T06:05:44;99916.06;;;22.23;72.62
52855;BME280;38719;51.418;7.286;2022-08-01T06:08:12;99922.06;;;22.27;72.50
52855;BME280;38719;51.418;7.286;2022-08-01T06:10:39;99935.03;;;22.33;72.26
52855;BME280;38719;51.418;7.286;2022-08-01T06:13:08;99926.91;;;22.33;72.07
52855;BME280;38719;51.418;7.286;2022-08-01T06:15:36;99937.19;;;22.30;71.77
52855;BME280;38719;51.418;7.286;2022-08-01T06:18:04;99938.75;;;22.32;71.93
52855;BME280;38719;51.418;7.286;2022-08-01T06:20:31;99927.34;;;22.29;72.20
52855;BME280;38719;51.418;7.286;2022-08-01T06:22:59;99929.78;;;22.42;71.85
52855;BME280;38719;51.418;7.286;2022-08-01T06:25:46;99928.38;;;22.37;71.17
52855;BME280;38719;51.418;7.286;2022-08-01T06:28:15;99932.91;;;22.37;71.81
52855;BME280;38719;51.418;7.286;2022-08-01T06:30:43;99931.19;;;22.36;71.76
52855;BME280;38719;51.418;7.286;2022-08-01T06:33:10;99937.50;;;22.46;71.13
52855;BME280;38719;51.418;7.286;2022-08-01T06:35:38;99940.75;;;22.60;71.46
52855;BME280;38719;51.418;7.286;2022-08-01T06:38:06;99932.84;;;22.66;71.21
52855;BME280;38719;51.418;7.286;2022-08-01T06:40:33;99930.53;;;22.72;69.82
52855;BME280;38719;51.418;7.286;2022-08-01T06:43:02;99931.09;;;22.75;69.86
52855;BME280;38719;51.418;7.286;2022-08-01T06:45:31;99932.97;;;22.75;69.88
52855;BME280;38719;51.418;7.286;2022-08-01T06:47:58;99928.50;;;22.83;69.18
52855;BME280;38719;51.418;7.286;2022-08-01T06:50:26;99929.91;;;22.88;69.48
52855;BME280;38719;51.418;7.286;2022-08-01T06:52:53;99931.91;;;22.85;69.41
52855;BME280;38719;51.418;7.286;2022-08-01T06:55:21;99931.03;;;22.95;69.91
52855;BME280;38719;51.418;7.286;2022-08-01T06:57:51;99934.97;;;23.00;68.67
52855;BME280;38719;51.418;7.286;2022-08-01T07:00:20;99935.25;;;23.07;68.45
52855;BME280;38719;51.418;7.286;2022-08-01T07:02:50;99931.16;;;23.03;68.00
52855;BME280;38719;51.418;7.286;2022-08-01T07:05:18;99930.09;;;23.04;68.13
52855;BME280;38719;51.418;7.286;2022-08-01T07:07:46;99929.50;;;23.10;68.08
52855;BME280;38719;51.418;7.286;2022-08-01T07:10:14;99920.19;;;23.13;67.53
52855;BME280;38719;51.418;7.286;2022-08-01T07:12:41;99921.06;;;23.13;67.42
52855;BME280;38719;51.418;7.286;2022-08-01T07:15:10;99911.22;;;23.12;67.15
52855;BME280;38719;51.418;7.286;2022-08-01T07:17:38;99915.63;;;23.23;68.01
52855;BME280;38719;51.418;7.286;2022-08-01T07:20:09;99914.75;;;23.23;66.73
52855;BME280;38719;51.418;7.286;2022-08-01T07:22:39;99916.84;;;23.29;67.74
52855;BME280;38719;51.418;7.286;2022-08-01T07:25:08;99923.16;;;23.29;67.15
52855;BME280;38719;51.418;7.286;2022-08-01T07:27:36;99919.19;;;23.24;66.02
52855;BME280;38719;51.418;7.286;2022-08-01T07:30:05;99918.63;;;23.20;66.74
52855;BME280;38719;51.418;7.286;2022-08-01T07:32:33;99924.94;;;23.21;66.52
52855;BME280;38719;51.418;7.286;2022-08-01T07:35:01;99921.78;;;23.15;66.30
52855;BME280;38719;51.418;7.286;2022-08-01T07:37:30;99921.69;;;23.07;66.02
52855;BME280;38719;51.418;7.286;2022-08-01T07:40:15;99927.56;;;23.02;66.51
52855;BME280;38719;51.418;7.286;2022-08-01T07:42:43;99933.53;;;23.16;66.09
52855;BME280;38719;51.418;7.286;2022-08-01T07:45:11;99932.38;;;23.18;66.37
52855;BME280;38719;51.418;7.286;2022-08-01T07:47:39;99931.53;;;23.36;65.49
52855;BME280;38719;51.418;7.286;2022-08-01T07:50:07;99933.97;;;23.39;65.51
52855;BME280;38719;51.418;7.286;2022-08-01T07:52:36;99929.31;;;23.49;65.24
52855;BME280;38719;51.418;7.286;2022-08-01T07:55:05;99931.63;;;23.62;65.00
52855;BME280;38719;51.418;7.286;2022-08-01T07:57:33;99935.31;;;23.71;64.97
52855;BME280;38719;51.418;7.286;2022-08-01T08:00:01;99937.78;;;23.64;64.29
52855;BME280;38719;51.418;7.286;2022-08-01T08:02:29;99938.03;;;23.71;63.64
52855;BME280;38719;51.418;7.286;2022-08-01T08:04:57;99945.31;;;23.71;63.76
52855;BME280;38719;51.418;7.286;2022-08-01T08:07:25;99948.22;;;23.69;63.74
52855;BME280;38719;51.418;7.286;2022-08-01T08:09:54;99941.16;;;23.76;63.56
52855;BME280;38719;51.418;7.286;2022-08-01T08:12:21;99941.53;;;23.81;63.42
52855;BME280;38719;51.418;7.286;2022-08-01T08:14:55;99954.75;;;23.76;63.47
52855;BME280;38719;51.418;7.286;2022-08-01T08:17:23;99947.44;;;23.77;63.09
52855;BME280;38719;51.418;7.286;2022-08-01T08:19:50;99943.19;;;23.92;63.00
52855;BME280;38719;51.418;7.286;2022-08-01T08:22:18;99943.50;;;24.07;62.08
52855;BME280;38719;51.418;7.286;2022-08-01T08:24:45;99952.25;;;24.19;62.14
52855;BME280;38719;51.418;7.286;2022-08-01T08:27:14;99949.69;;;24.18;62.01
52855;BME280;38719;51.418;7.286;2022-08-01T08:29:44;99952.56;;;24.16;61.38
52855;BME280;38719;51.418;7.286;2022-08-01T08:32:12;99953.97;;;24.20;61.28
52855;BME280;38719;51.418;7.286;2022-08-01T08:34:39;99955.25;;;24.34;61.38
52855;BME280;38719;51.418;7.286;2022-08-01T08:37:07;99954.94;;;24.37;61.27
52855;BME280;38719;51.418;7.286;2022-08-01T08:39:37;99958.66;;;24.36;61.50
52855;BME280;38719;51.418;7.286;2022-08-01T08:42:08;99961.09;;;24.39;61.11
52855;BME280;38719;51.418;7.286;2022-08-01T08:44:37;99968.91;;;24.42;60.97
52855;BME280;38719;51.418;7.286;2022-08-01T08:47:11;99967.09;;;24.51;60.99
52855;BME280;38719;51.418;7.286;2022-08-01T08:49:46;99970.25;;;24.65;60.26
52855;BME280;38719;51.418;7.286;2022-08-01T08:52:15;99968.56;;;24.63;60.51
52855;BME280;38719;51.418;7.286;2022-08-01T08:54:42;99961.00;;;24.75;59.43
52855;BME280;38719;51.418;7.286;2022-08-01T08:57:13;99959.72;;;24.88;59.07
52855;BME280;38719;51.418;7.286;2022-08-01T08:59:43;99961.44;;;24.89;58.84
52855;BME280;38719;51.418;7.286;2022-08-01T09:02:10;99961.91;;;24.84;57.98
52855;BME280;38719;51.418;7.286;2022-08-01T09:04:39;99968.84;;;24.78;58.00
52855;BME280;38719;51.418;7.286;2022-08-01T09:07:07;99963.81;;;24.92;58.22
52855;BME280;38719;51.418;7.286;2022-08-01T09:09:37;99969.63;;;24.97;57.90
52855;BME280;38719;51.418;7.286;2022-08-01T09:12:07;99976.09;;;24.96;57.53
52855;BME280;38719;51.418;7.286;2022-08-01T09:14:44;99978.63;;;24.89;58.07
52855;BME280;38719;51.418;7.286;2022-08-01T09:17:12;99982.16;;;24.82;58.48
52855;BME280;38719;51.418;7.286;2022-08-01T09:19:42;99980.44;;;24.62;58.31
52855;BME280;38719;51.418;7.286;2022-08-01T09:22:11;99983.97;;;24.55;58.22
52855;BME280;38719;51.418;7.286;2022-08-01T09:24:40;99985.50;;;24.49;59.76
52855;BME280;38719;51.418;7.286;2022-08-01T09:27:18;99988.06;;;24.59;58.43
52855;BME280;38719;51.418;7.286;2022-08-01T09:29:50;99987.59;;;24.63;58.58
52855;BME280;38719;51.418;7.286;2022-08-01T09:32:27;99991.00;;;24.84;58.33
52855;BME280;38719;51.418;7.286;2022-08-01T09:35:22;99992.75;;;24.93;58.10
52855;BME280;38719;51.418;7.286;2022-08-01T09:38:16;99988.84;;;25.30;56.88
52855;BME280;38719;51.418;7.286;2022-08-01T09:40:50;99993.38;;;25.13;56.29
52855;BME280;38719;51.418;7.286;2022-08-01T09:43:18;99993.91;;;25.17;56.72
52855;BME280;38719;51.418;7.286;2022-08-01T09:45:49;99994.91;;;25.07;56.33
52855;BME280;38719;51.418;7.286;2022-08-01T09:48:20;99995.97;;;24.88;55.19
52855;BME280;38719;51.418;7.286;2022-08-01T09:50:54;99989.03;;;24.94;56.74
52855;BME280;38719;51.418;7.286;2022-08-01T09:53:40;100003.44;;;25.13;57.49
52855;BME280;38719;51.418;7.286;2022-08-01T09:56:16;100008.41;;;25.25;56.35
52855;BME280;38719;51.418;7.286;2022-08-01T09:58:55;100006.47;;;25.44;55.88
52855;BME280;38719;51.418;7.286;2022-08-01T10:01:41;99996.97;;;25.56;55.44
52855;BME280;38719;51.418;7.286;2022-08-01T10:04:11;99999.41;;;25.76;54.02
52855;BME280;38719;51.418;7.286;2022-08-01T10:06:41;99995.00;;;25.83;53.16
52855;BME280;38719;51.418;7.286;2022-08-01T10:09:12;100001.00;;;25.95;52.92
52855;BME280;38719;51.418;7.286;2022-08-01T10:11:41;99983.97;;;26.10;51.82
52855;BME280;38719;51.418;7.286;2022-08-01T10:14:10;99988.09;;;26.22;52.74
52855;BME280;38719;51.418;7.286;2022-08-01T10:16:45;99992.50;;;26.39;52.00
52855;BME280;38719;51.418;7.286;2022-08-01T10:19:22;99989.59;;;26.49;51.13
52855;BME280;38719;51.418;7.286;2022-08-01T10:21:51;99988.75;;;26.82;51.78
52855;BME280;38719;51.418;7.286;2022-08-01T10:24:25;99991.94;;;26.94;51.37
52855;BME280;38719;51.418;7.286;2022-08-01T10:26:57;99986.28;;;27.12;50.72
52855;BME280;38719;51.418;7.286;2022-08-01T10:29:41;99980.41;;;27.23;49.82
52855;BME280;38719;51.418;7.286;2022-08-01T10:32:30;99984.78;;;27.32;49.20
52855;BME280;38719;51.418;7.286;2022-08-01T10:35:00;99986.41;;;27.18;49.39
52855;BME280;38719;51.418;7.286;2022-08-01T10:37:33;99994.84;;;27.00;49.00
52855;BME280;38719;51.418;7.286;2022-08-01T10:40:17;99986.72;;;26.76;49.11
52855;BME280;38719;51.418;7.286;2022-08-01T10:42:56;99989.06;;;26.70;49.67
52855;BME280;38719;51.418;7.286;2022-08-01T10:45:25;99995.91;;;26.66;50.52
52855;BME280;38719;51.418;7.286;2022-08-01T10:48:01;99994.75;;;26.61;50.24
52855;BME280;38719;51.418;7.286;2022-08-01T10:50:33;99990.47;;;26.50;49.85
52855;BME280;38719;51.418;7.286;2022-08-01T10:53:13;99996.09;;;26.40;49.94
52855;BME280;38719;51.418;7.286;2022-08-01T10:56:01;99991.31;;;26.26;50.54
52855;BME280;38719;51.418;7.286;2022-08-01T10:58:30;99992.69;;;26.21;50.98
52855;BME280;38719;51.418;7.286;2022-08-01T11:01:21;99988.25;;;26.12;51.10
52855;BME280;38719;51.418;7.286;2022-08-01T11:04:10;99994.56;;;26.29;52.47
52855;BME280;38719;51.418;7.286;2022-08-01T11:06:49;99993.56;;;26.38;51.47
52855;BME280;38719;51.418;7.286;2022-08-01T11:09:27;99985.34;;;26.47;51.32
52855;BME280;38719;51.418;7.286;2022-08-01T11:12:05;99990.78;;;26.71;50.75
52855;BME280;38719;51.418;7.286;2022-08-01T11:17:58;99986.84;;;26.91;50.03
52855;BME280;38719;51.418;7.286;2022-08-01T11:20:29;99984.66;;;26.61;50.82
52855;BME280;38719;51.418;7.286;2022-08-01T11:23:18;99981.94;;;26.45;51.71
52855;BME280;38719;51.418;7.286;2022-08-01T11:26:11;99991.81;;;26.46;51.77
52855;BME280;38719;51.418;7.286;2022-08-01T11:28:40;99994.56;;;26.37;51.83
52855;BME280;38719;51.418;7.286;2022-08-01T11:31:29;99999.03;;;26.38;52.20
52855;BME280;38719;51.418;7.286;2022-08-01T11:34:03;99989.59;;;26.49;51.63
52855;BME280;38719;51.418;7.286;2022-08-01T11:36:32;99984.69;;;26.36;52.37
52855;BME280;38719;51.418;7.286;2022-08-01T11:39:20;99988.22;;;26.62;51.67
52855;BME280;38719;51.418;7.286;2022-08-01T11:41:48;99989.59;;;26.82;50.23
52855;BME280;38719;51.418;7.286;2022-08-01T11:44:18;99988.56;;;26.92;49.78
52855;BME280;38719;51.418;7.286;2022-08-01T11:46:55;99980.50;;;27.07;49.18
52855;BME280;38719;51.418;7.286;2022-08-01T11:49:27;99985.59;;;27.10;48.97
52855;BME280;38719;51.418;7.286;2022-08-01T11:52:03;99988.00;;;26.96;49.42
52855;BME280;38719;51.418;7.286;2022-08-01T11:54:32;99992.47;;;26.89;48.11
52855;BME280;38719;51.418;7.286;2022-08-01T11:57:04;99989.25;;;26.85;47.65
52855;BME280;38719;51.418;7.286;2022-08-01T11:59:37;99979.16;;;26.94;47.49
52855;BME280;38719;51.418;7.286;2022-08-01T12:02:21;99981.19;;;26.92;48.63
52855;BME280;38719;51.418;7.286;2022-08-01T12:04:57;99991.78;;;26.70;50.21
52855;BME280;38719;51.418;7.286;2022-08-01T12:07:28;99987.75;;;26.25;49.74
52855;BME280;38719;51.418;7.286;2022-08-01T12:09:58;99990.31;;;26.10;50.71
52855;BME280;38719;51.418;7.286;2022-08-01T12:12:28;99993.03;;;26.27;50.44
52855;BME280;38719;51.418;7.286;2022-08-01T12:14:59;99991.16;;;26.27;51.09
52855;BME280;38719;51.418;7.286;2022-08-01T12:17:32;99997.97;;;26.48;50.62
52855;BME280;38719;51.418;7.286;2022-08-01T12:20:00;99990.78;;;26.71;49.97
52855;BME280;38719;51.418;7.286;2022-08-01T12:22:30;99995.38;;;26.71;49.49
52855;BME280;38719;51.418;7.286;2022-08-01T12:25:05;100000.34;;;26.84;49.18
52855;BME280;38719;51.418;7.286;2022-08-01T12:27:34;100000.78;;;27.12;49.57
52855;BME280;38719;51.418;7.286;2022-08-01T12:30:05;99993.69;;;27.34;47.24
52855;BME280;38719;51.418;7.286;2022-08-01T12:32:34;100002.06;;;27.41;47.61
52855;BME280;38719;51.418;7.286;2022-08-01T12:35:05;99997.22;;;27.51;46.38
52855;BME280;38719;51.418;7.286;2022-08-01T12:37:36;100001.22;;;27.95;46.70
52855;BME280;38719;51.418;7.286;2022-08-01T12:40:12;99995.56;;;28.05;46.59
52855;BME280;38719;51.418;7.286;2022-08-01T12:42:42;99999.44;;;28.34;45.86
52855;BME280;38719;51.418;7.286;2022-08-01T12:45:12;99996.63;;;28.42;45.24
52855;BME280;38719;51.418;7.286;2022-08-01T12:47:41;99990.13;;;28.58;45.13
52855;BME280;38719;51.418;7.286;2022-08-01T12:50:12;99992.47;;;28.31;45.00
52855;BME280;38719;51.418;7.286;2022-08-01T12:52:41;99986.88;;;28.40;45.20
52855;BME280;38719;51.418;7.286;2022-08-01T12:55:13;99998.44;;;28.12;45.49
52855;BME280;38719;51.418;7.286;2022-08-01T12:57:44;99997.56;;;28.11;46.18
52855;BME280;38719;51.418;7.286;2022-08-01T13:00:17;100000.78;;;28.15;44.22
52855;BME280;38719;51.418;7.286;2022-08-01T13:02:46;99999.25;;;28.36;44.75
52855;BME280;38719;51.418;7.286;2022-08-01T13:05:17;99986.16;;;27.99;43.99
52855;BME280;38719;51.418;7.286;2022-08-01T13:07:49;99979.84;;;27.76;43.94
52855;BME280;38719;51.418;7.286;2022-08-01T13:10:25;99983.06;;;28.03;44.86
52855;BME280;38719;51.418;7.286;2022-08-01T13:12:56;99986.16;;;28.23;44.82
52855;BME280;38719;51.418;7.286;2022-08-01T13:15:28;99986.66;;;28.26;44.69
52855;BME280;38719;51.418;7.286;2022-08-01T13:17:58;99984.81;;;28.42;44.99
52855;BME280;38719;51.418;7.286;2022-08-01T13:20:31;99990.63;;;28.24;45.37
52855;BME280;38719;51.418;7.286;2022-08-01T13:23:17;100001.31;;;27.87;47.28
52855;BME280;38719;51.418;7.286;2022-08-01T13:26:05;99995.25;;;27.69;47.45